Time;durP1;ratioP1;P1;durP2;ratioP2;P2;SDS_P1;SDS_P2;PMS_P1;PMS_P2;Temp;Humidity;BMP_temperature;BMP_pressure;BME280_temperature;BME280_humidity;BME280_pressure;Samples;Min_cycle;Max_cycle;Signal;HPM_P1;HPM_P2
2023/11/03 00:02:23;;;;;;;1.17;0.75;;;;;;;8.86;78.47;96142.28;5017341;28;20046;-51
2023/11/03 00:04:51;;;;;;;1.35;0.57;;;;;;;8.86;78.72;96157.75;5017633;28;20081;-56
2023/11/03 00:07:19;;;;;;;2.38;0.40;;;;;;;8.85;79.26;96158.69;5017344;28;20579;-56
2023/11/03 00:09:46;;;;;;;0.73;0.60;;;;;;;8.78;79.16;96159.94;5018293;28;20388;-59
2023/11/03 00:12:13;;;;;;;3.45;0.82;;;;;;;8.78;79.05;96165.94;5022356;28;20768;-52
2023/11/03 00:14:40;;;;;;;4.78;1.00;;;;;;;8.77;78.87;96173.75;5016853;28;20048;-52
2023/11/03 00:17:06;;;;;;;1.88;0.95;;;;;;;8.73;78.99;96168.78;5013131;28;20048;-50
2023/11/03 00:19:33;;;;;;;0.65;0.47;;;;;;;8.70;79.08;96168.97;5011395;28;20120;-52
2023/11/03 00:22:00;;;;;;;1.85;0.30;;;;;;;8.69;78.92;96171.63;5023582;28;20049;-56
2023/11/03 00:24:27;;;;;;;1.95;0.88;;;;;;;8.67;79.17;96169.13;5020989;28;20542;-49
2023/11/03 00:26:54;;;;;;;2.97;1.48;;;;;;;8.65;79.55;96176.13;5026076;28;20037;-46
2023/11/03 00:29:22;;;;;;;2.28;0.57;;;;;;;8.65;78.79;96170.97;5022568;28;20053;-51
2023/11/03 00:31:50;;;;;;;0.73;0.50;;;;;;;8.64;79.58;96184.78;5011903;28;20125;-52
2023/11/03 00:34:18;;;;;;;1.02;0.63;;;;;;;8.63;78.68;96184.88;5015923;28;20050;-51
2023/11/03 00:36:47;;;;;;;3.03;0.77;;;;;;;8.63;78.52;96185.72;5015098;28;20042;-54
2023/11/03 00:39:15;;;;;;;2.25;1.00;;;;;;;8.61;79.05;96190.94;5022450;28;20140;-48
2023/11/03 00:41:42;;;;;;;2.70;0.70;;;;;;;8.59;79.71;96191.97;5017128;28;20053;-51
2023/11/03 00:44:11;;;;;;;2.28;0.95;;;;;;;8.58;79.36;96195.47;5017582;28;20674;-51
2023/11/03 00:46:38;;;;;;;1.40;0.90;;;;;;;8.57;78.70;96198.94;5011693;28;20050;-49
2023/11/03 00:49:07;;;;;;;1.45;0.68;;;;;;;8.58;78.71;96205.78;5025861;28;20092;-52
2023/11/03 00:51:35;;;;;;;1.10;0.77;;;;;;;8.57;79.22;96214.41;5022108;28;20469;-55
2023/11/03 00:54:03;;;;;;;2.70;0.50;;;;;;;8.57;79.08;96209.25;5014515;28;20049;-51
2023/11/03 00:56:33;;;;;;;2.03;0.60;;;;;;;8.58;79.27;96210.94;5015012;28;20057;-51
2023/11/03 00:59:00;;;;;;;1.50;0.70;;;;;;;8.57;78.61;96217.00;5025677;28;20053;-51
2023/11/03 01:01:26;;;;;;;3.15;0.93;;;;;;;8.56;79.10;96215.34;5016928;28;20049;-53
2023/11/03 01:03:53;;;;;;;1.48;0.73;;;;;;;8.54;79.33;96214.63;5015956;28;20038;-59
2023/11/03 01:06:22;;;;;;;1.27;0.47;;;;;;;8.53;79.22;96218.06;5014345;28;20057;-54
2023/11/03 01:08:51;;;;;;;0.80;0.60;;;;;;;8.48;79.04;96219.16;5022308;28;20042;-50
2023/11/03 01:11:19;;;;;;;3.65;0.38;;;;;;;8.45;79.61;96221.06;5016790;28;20108;-55
2023/11/03 01:13:45;;;;;;;1.73;0.98;;;;;;;8.44;79.03;96225.41;5012880;28;20042;-56
2023/11/03 01:16:13;;;;;;;2.67;1.08;;;;;;;8.44;79.22;96222.81;5014831;28;20462;-43
2023/11/03 01:18:40;;;;;;;1.15;0.57;;;;;;;8.41;79.34;96225.56;5017583;28;20045;-49
2023/11/03 01:21:12;;;;;;;1.38;1.23;;;;;;;8.38;79.09;96236.06;5018576;28;20733;-51
2023/11/03 01:23:41;;;;;;;1.30;1.00;;;;;;;8.36;79.14;96232.72;5017162;28;20085;-49
2023/11/03 01:26:09;;;;;;;1.50;0.65;;;;;;;8.33;79.75;96227.72;5017357;28;20079;-57
2023/11/03 01:28:36;;;;;;;2.47;0.52;;;;;;;8.30;79.67;96238.22;5021748;28;20048;-49
2023/11/03 01:31:05;;;;;;;2.72;0.43;;;;;;;8.28;79.25;96234.91;5019124;28;20057;-45
2023/11/03 01:33:32;;;;;;;1.98;1.00;;;;;;;8.26;78.86;96239.28;5019027;28;20057;-50
2023/11/03 01:35:59;;;;;;;3.35;0.80;;;;;;;8.25;78.82;96235.06;5019442;28;20056;-56
2023/11/03 01:38:25;;;;;;;2.40;1.15;;;;;;;8.19;79.91;96247.38;5016254;28;20466;-50
2023/11/03 01:40:53;;;;;;;1.35;0.88;;;;;;;8.19;79.13;96252.53;5019089;28;20412;-54
2023/11/03 01:43:20;;;;;;;2.42;1.10;;;;;;;8.18;79.02;96256.00;5011357;28;20065;-52
2023/11/03 01:45:47;;;;;;;1.77;0.70;;;;;;;8.17;79.86;96250.97;5019795;28;20583;-48
2023/11/03 01:48:14;;;;;;;5.07;1.08;;;;;;;8.18;80.11;96263.75;5014497;28;20061;-47
2023/11/03 01:50:42;;;;;;;2.65;0.65;;;;;;;8.17;79.78;96253.53;5019480;28;20049;-56
2023/11/03 01:53:10;;;;;;;4.40;0.60;;;;;;;8.17;79.72;96264.66;5026299;28;20057;-53
2023/11/03 01:55:37;;;;;;;3.47;0.65;;;;;;;8.13;79.03;96265.75;5030777;28;20103;-46
2023/11/03 01:58:04;;;;;;;2.50;0.93;;;;;;;8.12;79.88;96266.66;5014335;28;20049;-56
2023/11/03 02:00:31;;;;;;;3.83;0.98;;;;;;;8.10;79.26;96273.63;5021303;28;20121;-46
2023/11/03 02:02:58;;;;;;;4.25;1.38;;;;;;;8.09;79.20;96266.81;5024429;28;20566;-54
2023/11/03 02:05:25;;;;;;;2.78;0.98;;;;;;;8.09;80.21;96274.56;5021808;28;20050;-50
2023/11/03 02:07:51;;;;;;;1.20;0.47;;;;;;;8.10;80.05;96278.78;5025060;28;21045;-50
2023/11/03 02:10:18;;;;;;;4.68;1.15;;;;;;;8.08;79.58;96288.38;5030065;28;20049;-53
2023/11/03 02:12:45;;;;;;;6.13;1.67;;;;;;;8.09;79.94;96274.56;5013698;28;20441;-54
2023/11/03 02:15:12;;;;;;;4.97;1.67;;;;;;;8.08;79.33;96283.22;5014616;28;20153;-47
2023/11/03 02:17:39;;;;;;;2.38;1.05;;;;;;;8.09;79.08;96290.03;5018478;28;20052;-49
2023/11/03 02:20:07;;;;;;;5.53;1.20;;;;;;;8.08;80.32;96285.78;5023670;28;20088;-49
2023/11/03 02:22:34;;;;;;;5.30;1.10;;;;;;;8.07;79.86;96291.88;5028263;28;20061;-48
2023/11/03 02:25:01;;;;;;;3.97;1.05;;;;;;;8.03;80.05;96277.44;5012070;28;20061;-54
2023/11/03 02:27:28;;;;;;;4.60;0.77;;;;;;;8.00;79.60;96277.63;5018553;28;20057;-47
2023/11/03 02:29:56;;;;;;;2.83;1.02;;;;;;;7.93;80.01;96277.94;5021318;28;20095;-53
2023/11/03 02:32:22;;;;;;;8.50;1.25;;;;;;;7.95;79.83;96286.44;5007941;28;20058;-55
2023/11/03 02:34:49;;;;;;;5.07;2.10;;;;;;;7.97;79.19;96283.75;5008947;28;20044;-56
2023/11/03 02:37:16;;;;;;;2.15;1.08;;;;;;;8.00;79.59;96295.69;5011385;28;20046;-57
2023/11/03 02:39:47;;;;;;;2.63;2.05;;;;;;;7.95;79.85;96291.59;5014345;28;20045;-55
2023/11/03 02:42:16;;;;;;;0.80;0.73;;;;;;;7.92;80.45;96296.91;5008142;28;20497;-53
2023/11/03 02:44:43;;;;;;;1.08;0.70;;;;;;;7.92;79.59;96294.34;5007182;28;20122;-50
2023/11/03 02:47:10;;;;;;;2.42;1.10;;;;;;;7.95;79.54;96299.34;5009905;28;20088;-55
2023/11/03 02:49:36;;;;;;;2.00;0.60;;;;;;;7.95;80.05;96307.06;5022654;28;20449;-54
2023/11/03 02:52:03;;;;;;;6.15;1.38;;;;;;;7.95;79.58;96306.22;5012191;28;20115;-50
2023/11/03 02:54:30;;;;;;;2.55;0.80;;;;;;;7.94;79.20;96302.78;5009659;28;20061;-56
2023/11/03 02:56:57;;;;;;;3.25;0.90;;;;;;;7.94;79.01;96305.38;5014757;28;20096;-52
2023/11/03 02:59:23;;;;;;;2.88;0.70;;;;;;;7.92;80.05;96302.06;5017535;28;20107;-51
2023/11/03 03:01:50;;;;;;;1.50;0.70;;;;;;;7.92;79.43;96302.06;5007585;28;20714;-56
2023/11/03 03:04:17;;;;;;;2.90;0.90;;;;;;;7.89;79.50;96302.22;5011211;28;20510;-56
2023/11/03 03:06:45;;;;;;;4.80;0.98;;;;;;;7.88;79.64;96300.56;5008195;28;20054;-56
2023/11/03 03:09:12;;;;;;;3.55;0.60;;;;;;;7.86;79.77;96302.38;5019343;28;20052;-55
2023/11/03 03:11:40;;;;;;;5.88;1.10;;;;;;;7.84;78.93;96299.06;5020224;28;20099;-51
2023/11/03 03:14:08;;;;;;;3.28;1.45;;;;;;;7.85;78.99;96305.88;5011092;28;20053;-53
2023/11/03 03:16:36;;;;;;;2.55;0.63;;;;;;;7.80;79.56;96310.44;5013122;28;20057;-50
2023/11/03 03:19:02;;;;;;;3.58;0.95;;;;;;;7.79;79.96;96308.75;5013095;28;20045;-46
2023/11/03 03:21:29;;;;;;;5.65;0.73;;;;;;;7.76;80.56;96307.16;5015177;28;20058;-54
2023/11/03 03:23:56;;;;;;;3.80;1.80;;;;;;;7.78;80.27;96322.53;5018917;28;20049;-50
2023/11/03 03:26:22;;;;;;;1.25;0.93;;;;;;;7.76;79.83;96321.78;5021568;28;20049;-54
2023/11/03 03:28:49;;;;;;;1.45;0.95;;;;;;;7.75;80.42;96328.69;5014251;28;20045;-55
2023/11/03 03:31:17;;;;;;;1.73;1.05;;;;;;;7.72;79.98;96329.69;5014564;28;20053;-54
2023/11/03 03:33:44;;;;;;;2.13;0.82;;;;;;;7.74;80.41;96328.78;5014390;28;20053;-56
2023/11/03 03:36:11;;;;;;;4.47;1.08;;;;;;;7.72;80.49;96323.69;5022958;28;20049;-51
2023/11/03 03:38:37;;;;;;;5.72;1.05;;;;;;;7.73;79.24;96327.94;5015623;28;20042;-48
2023/11/03 03:41:10;;;;;;;4.55;0.70;;;;;;;7.72;79.24;96332.28;5016122;28;20642;-54
2023/11/03 03:43:36;;;;;;;2.20;0.60;;;;;;;7.68;80.25;96335.91;5021766;28;20069;-56
2023/11/03 03:46:03;;;;;;;5.60;0.60;;;;;;;7.69;79.38;96335.00;5018241;28;20048;-51
2023/11/03 03:48:29;;;;;;;1.95;0.85;;;;;;;7.69;80.56;96342.72;5012597;28;20053;-53
2023/11/03 03:50:56;;;;;;;2.42;0.30;;;;;;;7.68;79.69;96335.91;5022088;28;20045;-55
2023/11/03 03:53:23;;;;;;;1.35;0.77;;;;;;;7.69;79.58;96341.88;5020541;28;20061;-53
2023/11/03 03:55:49;;;;;;;2.05;1.27;;;;;;;7.66;79.72;96334.31;5019919;28;20046;-54
2023/11/03 03:58:16;;;;;;;2.88;0.60;;;;;;;7.66;80.49;96332.56;5026294;28;20053;-53
2023/11/03 04:00:42;;;;;;;4.53;0.60;;;;;;;7.65;79.56;96325.75;5031405;28;20042;-56
2023/11/03 04:03:09;;;;;;;2.88;0.63;;;;;;;7.67;79.80;96333.41;5035546;28;20063;-52
2023/11/03 04:05:36;;;;;;;4.32;0.77;;;;;;;7.68;80.42;96327.34;5020692;28;20079;-50
2023/11/03 04:08:03;;;;;;;6.28;1.38;;;;;;;7.68;79.60;96330.75;5028700;28;20104;-46
2023/11/03 04:10:29;;;;;;;1.83;0.80;;;;;;;7.70;80.87;96328.09;5028386;28;20049;-45
2023/11/03 04:12:57;;;;;;;3.65;0.73;;;;;;;7.70;80.68;96334.06;5020854;28;20499;-56
2023/11/03 04:15:23;;;;;;;3.30;0.63;;;;;;;7.71;79.71;96338.31;5035096;28;20049;-59
2023/11/03 04:17:50;;;;;;;2.83;1.15;;;;;;;7.70;80.15;96334.06;5027395;28;20064;-54
2023/11/03 04:20:17;;;;;;;3.88;0.90;;;;;;;7.72;80.89;96332.28;5028478;28;20049;-48
2023/11/03 04:22:43;;;;;;;3.40;0.60;;;;;;;7.72;81.01;96340.00;5020583;28;20061;-52
2023/11/03 04:25:10;;;;;;;3.65;0.73;;;;;;;7.74;80.55;96331.34;5018489;28;20111;-57
2023/11/03 04:27:37;;;;;;;4.32;1.40;;;;;;;7.74;79.97;96339.06;5014359;28;20061;-48
2023/11/03 04:30:04;;;;;;;2.03;1.00;;;;;;;7.74;79.95;96334.78;5018426;28;20046;-54
2023/11/03 04:32:31;;;;;;;2.25;0.98;;;;;;;7.73;80.39;96343.38;5016256;28;20045;-52
2023/11/03 04:34:58;;;;;;;3.15;0.95;;;;;;;7.76;80.44;96347.53;5012050;28;20045;-47
2023/11/03 04:37:25;;;;;;;3.65;1.70;;;;;;;7.74;79.67;96344.22;5014385;28;20060;-48
2023/11/03 04:39:52;;;;;;;3.20;0.75;;;;;;;7.75;80.12;96351.03;5015920;28;20037;-55
2023/11/03 04:42:19;;;;;;;2.58;1.02;;;;;;;7.75;80.89;96364.75;5012412;28;20059;-54
2023/11/03 04:44:46;;;;;;;6.82;0.95;;;;;;;7.74;79.85;96364.84;5018116;28;20077;-53
2023/11/03 04:47:12;;;;;;;3.97;1.27;;;;;;;7.75;80.08;96369.91;5012698;28;20064;-50
2023/11/03 04:49:39;;;;;;;2.97;1.33;;;;;;;7.76;80.40;96370.72;5016845;28;20076;-49
2023/11/03 04:52:06;;;;;;;9.23;1.50;;;;;;;7.77;80.08;96364.69;5017569;28;20042;-50
2023/11/03 04:54:33;;;;;;;3.88;0.80;;;;;;;7.78;80.61;96374.91;5024595;28;20042;-53
2023/11/03 04:56:59;;;;;;;5.55;0.60;;;;;;;7.79;79.95;96379.16;5021254;28;20048;-52
2023/11/03 04:59:26;;;;;;;5.63;1.70;;;;;;;7.78;80.31;96381.81;5019993;28;21527;-58
2023/11/03 05:01:54;;;;;;;5.63;0.82;;;;;;;7.79;79.84;96383.47;5019438;28;20045;-54
2023/11/03 05:04:22;;;;;;;2.78;0.65;;;;;;;7.80;79.74;96390.28;5024978;28;20529;-55
2023/11/03 05:06:49;;;;;;;8.98;1.35;;;;;;;7.81;79.81;96391.97;5015118;28;20049;-56
2023/11/03 05:09:17;;;;;;;4.90;1.85;;;;;;;7.82;80.38;96394.47;5030769;28;20136;-52
2023/11/03 05:11:44;;;;;;;1.65;0.93;;;;;;;7.85;80.15;96398.63;5020354;28;20057;-58
2023/11/03 05:14:11;;;;;;;1.13;0.52;;;;;;;7.83;80.09;96410.72;5024537;28;20044;-49
2023/11/03 05:16:38;;;;;;;2.00;1.20;;;;;;;7.86;80.76;96405.44;5014516;28;20076;-48
2023/11/03 05:19:05;;;;;;;4.05;0.50;;;;;;;7.88;80.90;96415.66;5024213;28;20045;-53
2023/11/03 05:21:31;;;;;;;1.88;0.60;;;;;;;7.85;80.89;96414.06;5025696;28;20053;-51
2023/11/03 05:23:58;;;;;;;3.50;0.77;;;;;;;7.88;80.32;96413.94;5025306;28;20052;-50
2023/11/03 05:26:25;;;;;;;4.68;1.75;;;;;;;7.89;79.68;96423.31;5022303;28;20510;-55
2023/11/03 05:28:52;;;;;;;7.10;1.20;;;;;;;7.90;81.00;96422.41;5023320;28;20494;-57
2023/11/03 05:31:18;;;;;;;4.20;0.77;;;;;;;7.92;80.46;96424.91;5030606;28;20049;-51
2023/11/03 05:33:45;;;;;;;4.93;0.90;;;;;;;7.94;80.95;96429.06;5017371;28;20099;-55
2023/11/03 05:36:12;;;;;;;3.00;1.00;;;;;;;8.00;80.38;96427.09;5019023;28;20053;-48
2023/11/03 05:38:39;;;;;;;5.38;0.70;;;;;;;8.02;79.97;96430.41;5016494;28;20044;-56
2023/11/03 05:41:05;;;;;;;5.57;1.15;;;;;;;8.04;79.94;96436.34;5020234;28;20045;-47
2023/11/03 05:43:32;;;;;;;3.08;1.10;;;;;;;8.05;80.54;96440.56;5014110;28;20049;-54
2023/11/03 05:45:58;;;;;;;4.95;1.30;;;;;;;8.07;80.64;96438.78;5014773;28;20398;-52
2023/11/03 05:48:25;;;;;;;1.35;0.40;;;;;;;8.10;80.70;96438.59;5023166;28;20053;-49
2023/11/03 05:50:52;;;;;;;8.20;0.93;;;;;;;8.12;80.19;96436.78;5026960;28;20050;-56
2023/11/03 05:53:19;;;;;;;6.25;1.15;;;;;;;8.13;80.66;96446.19;5020516;28;20057;-54
2023/11/03 05:55:45;;;;;;;7.30;0.47;;;;;;;8.13;80.79;96443.59;5024852;28;20045;-51
2023/11/03 05:58:12;;;;;;;2.40;0.40;;;;;;;8.11;79.68;96440.28;5028984;28;20058;-50
2023/11/03 06:00:39;;;;;;;8.05;0.98;;;;;;;8.09;79.90;96442.09;5031592;28;20053;-50
2023/11/03 06:03:06;;;;;;;3.38;0.63;;;;;;;8.04;80.06;96441.50;5023715;28;20496;-48
2023/11/03 06:05:33;;;;;;;4.88;0.55;;;;;;;8.01;79.91;96446.81;5019879;28;20042;-51
2023/11/03 06:08:01;;;;;;;1.75;0.98;;;;;;;7.94;80.70;96439.38;5025518;28;20045;-53
2023/11/03 06:10:28;;;;;;;5.18;1.05;;;;;;;7.91;80.02;96442.09;5023798;28;20103;-47
2023/11/03 06:12:54;;;;;;;5.90;0.60;;;;;;;7.87;79.90;96445.72;5018565;28;20061;-52
2023/11/03 06:15:21;;;;;;;6.43;0.77;;;;;;;7.86;80.16;96451.00;5032873;28;20053;-50
2023/11/03 06:17:48;;;;;;;3.60;1.63;;;;;;;7.84;80.16;96449.31;5021380;28;20065;-58
2023/11/03 06:20:14;;;;;;;2.92;1.13;;;;;;;7.82;80.35;96445.13;5022999;28;20059;-50
2023/11/03 06:22:41;;;;;;;5.80;1.02;;;;;;;7.79;80.24;96450.44;5025487;28;20080;-51
2023/11/03 06:25:08;;;;;;;3.63;0.60;;;;;;;7.76;80.02;96450.59;5009742;28;20042;-44
2023/11/03 06:27:35;;;;;;;5.53;1.10;;;;;;;7.74;80.21;96452.41;5025034;28;20060;-49
2023/11/03 06:30:02;;;;;;;6.05;0.68;;;;;;;7.72;79.77;96450.75;5030319;28;20052;-52
2023/11/03 06:32:28;;;;;;;2.40;1.00;;;;;;;7.69;80.30;96461.22;5013655;28;20495;-48
2023/11/03 06:34:55;;;;;;;3.53;0.60;;;;;;;7.70;80.22;96457.72;5008729;28;20089;-50
2023/11/03 06:37:22;;;;;;;5.05;0.63;;;;;;;7.70;80.21;96464.63;5016178;28;20064;-50
2023/11/03 06:39:51;;;;;;;5.75;0.80;;;;;;;7.72;80.77;96470.53;5014630;28;20050;-48
2023/11/03 06:42:18;;;;;;;4.25;0.63;;;;;;;7.77;81.26;96478.03;5014312;28;20045;-52
2023/11/03 06:44:45;;;;;;;4.95;1.30;;;;;;;7.77;80.56;96483.19;5015037;28;20133;-54
2023/11/03 06:47:12;;;;;;;7.13;0.98;;;;;;;7.80;80.96;96483.03;5015914;28;20068;-58
2023/11/03 06:49:44;;;;;;;5.25;1.20;;;;;;;7.82;81.44;96481.22;5016761;28;20049;-50
2023/11/03 06:52:11;;;;;;;7.00;1.05;;;;;;;7.85;80.24;96475.91;5013365;28;20057;-53
2023/11/03 06:54:38;;;;;;;1.98;0.63;;;;;;;7.86;81.42;96487.88;5010169;28;20746;-55
2023/11/03 06:57:06;;;;;;;8.60;1.00;;;;;;;7.90;80.99;96480.84;5014672;28;20514;-51
2023/11/03 06:59:33;;;;;;;1.40;1.30;;;;;;;7.91;80.10;96491.03;5003955;28;20045;-53
2023/11/03 07:02:00;;;;;;;4.38;0.93;;;;;;;7.94;80.99;96495.25;5009085;28;20491;-52
2023/11/03 07:04:27;;;;;;;5.32;0.57;;;;;;;7.96;80.31;96494.25;5013237;28;20049;-53
2023/11/03 07:06:54;;;;;;;6.00;0.98;;;;;;;7.97;80.93;96490.75;5011410;28;20046;-46
2023/11/03 07:09:20;;;;;;;3.72;1.08;;;;;;;8.00;80.36;96502.66;5013750;28;20045;-53
2023/11/03 07:11:47;;;;;;;9.23;0.80;;;;;;;8.00;80.63;96497.50;5014697;28;20049;-51
2023/11/03 07:14:14;;;;;;;4.30;2.10;;;;;;;8.03;81.22;96509.38;5012944;28;20054;-46
2023/11/03 07:16:42;;;;;;;5.55;1.38;;;;;;;8.04;81.10;96511.09;5012803;28;20041;-55
2023/11/03 07:19:09;;;;;;;2.53;0.88;;;;;;;8.05;81.23;96513.59;5017982;28;20077;-50
2023/11/03 07:21:36;;;;;;;3.80;0.70;;;;;;;8.04;80.31;96517.06;5024292;28;21355;-54
2023/11/03 07:24:03;;;;;;;3.42;0.90;;;;;;;8.05;81.21;96517.91;5009921;28;20046;-53
2023/11/03 07:26:31;;;;;;;3.00;0.90;;;;;;;8.03;81.31;96522.28;5022194;28;20054;-54
2023/11/03 07:28:59;;;;;;;2.50;0.55;;;;;;;8.03;80.97;96515.41;5021286;28;20064;-58
2023/11/03 07:31:27;;;;;;;3.65;0.50;;;;;;;8.09;80.39;96529.72;5017344;28;20046;-46
2023/11/03 07:33:55;;;;;;;2.20;0.73;;;;;;;8.11;80.62;96525.34;5027386;28;20528;-51
2023/11/03 07:36:23;;;;;;;3.47;0.80;;;;;;;8.16;80.98;96531.09;5018640;28;20411;-44
2023/11/03 07:38:49;;;;;;;2.95;1.20;;;;;;;8.18;80.74;96534.41;5017364;28;20685;-47
2023/11/03 07:41:16;;;;;;;5.57;1.48;;;;;;;8.25;80.23;96534.13;5020224;28;20053;-46
2023/11/03 07:43:43;;;;;;;5.60;1.55;;;;;;;8.33;80.64;96537.13;5026879;28;20054;-54
2023/11/03 07:46:10;;;;;;;5.82;0.93;;;;;;;8.36;80.59;96542.16;5021280;28;20049;-45
2023/11/03 07:48:38;;;;;;;4.82;0.98;;;;;;;8.39;80.90;96547.16;5020729;28;20144;-51
2023/11/03 07:51:05;;;;;;;3.90;0.90;;;;;;;8.40;80.93;96550.56;5007337;28;20046;-51
2023/11/03 07:53:33;;;;;;;2.53;0.82;;;;;;;8.39;80.73;96544.59;5025203;28;20047;-57
2023/11/03 07:56:00;;;;;;;4.85;1.38;;;;;;;8.38;79.93;96544.66;5006004;28;20132;-50
2023/11/03 07:58:27;;;;;;;4.50;1.15;;;;;;;8.37;80.13;96548.97;5017026;28;20049;-48
2023/11/03 08:00:56;;;;;;;4.05;0.90;;;;;;;8.33;80.66;96553.47;5007204;28;20046;-47
2023/11/03 08:03:23;;;;;;;7.57;0.93;;;;;;;8.34;80.01;96549.13;5012844;28;20529;-53
2023/11/03 08:05:49;;;;;;;5.97;1.15;;;;;;;8.33;80.22;96553.47;5007501;28;20149;-50
2023/11/03 08:08:16;;;;;;;6.95;0.82;;;;;;;8.36;80.30;96549.88;5012911;28;20060;-54
2023/11/03 08:10:43;;;;;;;3.40;0.70;;;;;;;8.41;81.10;96555.63;5011033;28;20042;-47
2023/11/03 08:13:10;;;;;;;3.00;1.42;;;;;;;8.46;80.21;96558.00;5014020;28;20053;-52
2023/11/03 08:15:37;;;;;;;3.47;1.00;;;;;;;8.53;80.10;96563.66;5010055;28;20044;-45
2023/11/03 08:18:05;;;;;;;6.13;0.90;;;;;;;8.60;80.36;96565.91;5006434;28;20241;-51
2023/11/03 08:20:33;;;;;;;6.35;1.17;;;;;;;8.71;80.41;96578.25;5009919;28;20053;-53
2023/11/03 08:22:59;;;;;;;1.48;1.05;;;;;;;8.95;80.79;96569.34;5009347;28;20514;-47
2023/11/03 08:25:28;;;;;;;10.93;1.23;;;;;;;9.54;81.17;96580.88;5011937;28;20056;-49
2023/11/03 08:27:54;;;;;;;3.95;0.73;;;;;;;10.22;80.25;96577.13;5013785;28;21384;-53
2023/11/03 08:30:22;;;;;;;5.60;1.33;;;;;;;10.44;79.73;96586.22;5009344;28;20092;-54
2023/11/03 08:32:50;;;;;;;6.03;1.40;;;;;;;10.40;78.74;96592.47;5009051;28;20070;-49
2023/11/03 08:35:20;;;;;;;10.73;1.02;;;;;;;10.34;79.17;96600.63;5010635;28;20058;-55
2023/11/03 08:37:48;;;;;;;4.25;1.30;;;;;;;10.52;79.70;96594.41;5010848;28;20049;-50
2023/11/03 08:40:15;;;;;;;2.28;1.67;;;;;;;10.91;79.60;96609.44;5012502;28;20507;-48
2023/11/03 08:42:44;;;;;;;4.80;1.30;;;;;;;10.98;79.03;96610.72;5018272;28;20103;-56
2023/11/03 08:45:11;;;;;;;5.57;1.35;;;;;;;10.91;77.78;96617.22;5015669;28;20046;-55
2023/11/03 08:47:42;;;;;;;2.65;1.40;;;;;;;10.80;78.51;96613.50;5024130;28;20045;-53
2023/11/03 08:50:11;;;;;;;4.70;1.88;;;;;;;10.83;78.09;96616.81;5020734;28;20057;-51
2023/11/03 08:52:38;;;;;;;5.93;1.52;;;;;;;11.34;79.18;96616.38;5014392;28;20057;-53
2023/11/03 08:55:06;;;;;;;7.32;1.77;;;;;;;12.32;78.96;96610.28;5021505;28;20045;-54
2023/11/03 08:57:34;;;;;;;4.75;2.03;;;;;;;13.54;77.18;96615.22;5028485;28;20049;-51
2023/11/03 09:00:08;;;;;;;5.95;2.30;;;;;;;14.72;75.32;96618.09;5012097;28;20073;-50
2023/11/03 09:02:36;;;;;;;5.30;2.35;;;;;;;15.61;72.91;96630.53;5015415;28;20069;-47
2023/11/03 09:05:04;;;;;;;5.38;2.40;;;;;;;15.91;71.56;96623.81;5012103;28;20049;-56
2023/11/03 09:07:31;;;;;;;6.03;1.58;;;;;;;16.01;70.65;96633.56;5014343;28;20132;-55
2023/11/03 09:09:58;;;;;;;5.15;2.30;;;;;;;16.13;70.74;96627.34;5015932;28;20049;-53
2023/11/03 09:12:25;;;;;;;6.32;2.28;;;;;;;16.40;70.98;96630.44;5013164;28;20077;-57
2023/11/03 09:14:51;;;;;;;7.53;2.22;;;;;;;16.73;70.56;96633.88;5017368;28;20053;-55
2023/11/03 09:17:19;;;;;;;4.85;1.90;;;;;;;16.99;69.35;96628.22;5025529;28;20045;-52
2023/11/03 09:19:46;;;;;;;2.33;1.10;;;;;;;16.84;69.29;96625.13;5013550;28;20053;-51
2023/11/03 09:22:12;;;;;;;4.50;1.85;;;;;;;16.64;69.03;96632.84;5017444;28;20060;-55
2023/11/03 09:24:48;;;;;;;7.63;2.25;;;;;;;16.52;68.41;96631.25;5021035;28;20141;-55
2023/11/03 09:27:15;;;;;;;4.90;1.73;;;;;;;16.34;68.33;96647.44;5014085;28;20550;-53
2023/11/03 09:29:42;;;;;;;6.10;1.83;;;;;;;15.92;68.33;96646.38;5014887;28;20053;-56
2023/11/03 09:32:09;;;;;;;4.65;1.42;;;;;;;15.46;68.43;96649.94;5024058;28;20561;-51
2023/11/03 09:34:36;;;;;;;5.18;1.75;;;;;;;15.14;69.11;96651.50;5015638;28;20092;-50
2023/11/03 09:37:03;;;;;;;6.20;1.80;;;;;;;14.96;69.32;96653.72;5014869;28;20132;-47
2023/11/03 09:39:33;;;;;;;4.20;1.98;;;;;;;14.80;69.59;96654.88;5006699;28;20053;-57
2023/11/03 09:42:04;;;;;;;4.88;1.20;;;;;;;14.58;69.75;96659.03;5012252;28;20068;-58
2023/11/03 09:44:33;;;;;;;7.15;1.73;;;;;;;14.51;69.99;96670.84;5010126;28;20556;-57
2023/11/03 09:47:01;;;;;;;5.43;1.85;;;;;;;14.49;70.18;96677.94;5018331;28;20052;-59
2023/11/03 09:49:29;;;;;;;4.68;1.60;;;;;;;14.56;70.97;96673.94;5016450;28;20085;-57
2023/11/03 09:52:02;;;;;;;6.05;1.45;;;;;;;15.13;71.62;96681.94;5021060;28;20069;-59
2023/11/03 09:54:31;;;;;;;4.32;1.40;;;;;;;15.21;70.65;96683.97;5016968;28;20061;-56
2023/11/03 09:57:02;;;;;;;4.63;1.58;;;;;;;15.29;70.65;96680.78;5016925;28;20068;-51
2023/11/03 09:59:34;;;;;;;5.50;1.63;;;;;;;15.51;70.10;96685.16;5013147;28;20138;-55
2023/11/03 10:02:09;;;;;;;3.13;1.30;;;;;;;15.39;68.90;96684.34;5014470;28;20050;-49
2023/11/03 10:04:38;;;;;;;5.78;1.35;;;;;;;15.05;68.91;96684.28;5016799;28;20144;-54
2023/11/03 10:07:10;;;;;;;4.03;1.70;;;;;;;14.75;68.93;96681.22;5009503;28;20120;-53
2023/11/03 10:09:40;;;;;;;3.75;1.60;;;;;;;14.45;69.10;96679.94;5020966;28;20064;-54
2023/11/03 10:12:12;;;;;;;4.68;1.48;;;;;;;14.25;69.68;96671.78;5010892;28;20056;-56
2023/11/03 10:14:39;;;;;;;5.70;0.90;;;;;;;14.11;69.65;96672.78;5006366;28;20080;-49
2023/11/03 10:17:08;;;;;;;7.13;1.23;;;;;;;14.62;70.58;96673.50;5011223;28;20118;-52
2023/11/03 10:19:35;;;;;;;7.88;2.17;;;;;;;15.44;69.06;96677.94;5010785;28;20049;-53
2023/11/03 10:22:08;;;;;;;3.10;1.90;;;;;;;15.91;68.41;96669.97;5013114;28;20054;-52
2023/11/03 10:24:36;;;;;;;5.68;1.88;;;;;;;16.04;67.71;96672.44;5010477;28;20112;-52
2023/11/03 10:27:02;;;;;;;4.72;1.50;;;;;;;16.02;67.84;96680.44;5013797;28;20459;-53
2023/11/03 10:29:30;;;;;;;6.70;2.60;;;;;;;15.80;67.62;96673.41;5010620;28;20042;-50
2023/11/03 10:31:57;;;;;;;3.97;1.23;;;;;;;15.54;67.23;96673.69;5014528;28;20049;-56
2023/11/03 10:34:24;;;;;;;2.53;1.23;;;;;;;15.26;67.67;96675.78;5014612;28;20554;-51
2023/11/03 10:36:55;;;;;;;3.58;1.10;;;;;;;15.05;67.42;96679.09;5022732;28;20048;-52
2023/11/03 10:39:24;;;;;;;3.85;0.82;;;;;;;14.83;67.89;96665.03;5019960;28;20065;-51
2023/11/03 10:41:51;;;;;;;4.35;1.58;;;;;;;14.73;68.41;96661.44;5021681;28;20049;-51
2023/11/03 10:44:20;;;;;;;5.50;2.40;;;;;;;14.71;68.58;96671.16;5017020;28;20061;-49
2023/11/03 10:55:06;;;;;;;3.30;2.90;;;;;;;14.24;68.25;96684.91;5021736;28;20418;-54
2023/11/03 10:57:34;;;;;;;6.15;1.55;;;;;;;14.09;68.79;96677.25;5018787;28;20425;-53
2023/11/03 11:00:17;;;;;;;5.85;1.67;;;;;;;14.03;69.25;96682.91;5020472;28;20545;-53
2023/11/03 11:03:01;;;;;;;8.10;4.18;;;;;;;13.97;69.57;96683.34;5014576;28;20041;-49
2023/11/03 11:05:40;;;;;;;4.60;2.72;;;;;;;13.88;69.59;96685.66;5016416;28;20466;-54
2023/11/03 11:08:09;;;;;;;6.07;2.63;;;;;;;13.85;70.18;96691.06;5011402;28;20093;-51
2023/11/03 11:10:40;;;;;;;5.13;2.30;;;;;;;13.92;70.02;96695.84;5014634;28;20065;-53
2023/11/03 11:13:25;;;;;;;3.70;2.50;;;;;;;14.06;70.56;96687.06;5025667;28;20045;-56
2023/11/03 11:18:42;;;;;;;8.98;1.70;;;;;;;14.05;70.61;96696.63;5074178;27;20407;-50
2023/11/03 11:21:10;;;;;;;7.05;1.40;;;;;;;14.00;69.93;96703.94;5064673;28;20047;-49
2023/11/03 11:23:43;;;;;;;2.90;1.05;;;;;;;13.94;70.09;96699.16;5042881;28;20049;-50
2023/11/03 11:26:16;;;;;;;7.35;2.00;;;;;;;13.92;70.74;96701.91;5034573;28;20045;-56
2023/11/03 11:29:00;;;;;;;4.35;1.00;;;;;;;13.90;69.82;96697.72;5063848;28;20052;-52
2023/11/03 11:36:40;;;;;;;4.90;2.63;;;;;;;13.87;69.72;96699.63;5053613;27;20766;-57
2023/11/03 11:41:51;;;;;;;3.10;1.13;;;;;;;13.84;69.04;96704.19;5018236;28;20400;-52
2023/11/03 11:44:23;;;;;;;2.50;1.00;;;;;;;13.72;69.59;96700.69;4988893;28;20057;-57
2023/11/03 11:46:54;;;;;;;2.15;1.08;;;;;;;13.59;69.01;96706.75;4983982;28;20078;-51
2023/11/03 11:49:22;;;;;;;2.35;0.68;;;;;;;13.49;69.76;96710.91;4994076;28;20634;-55
2023/11/03 11:51:51;;;;;;;1.75;0.95;;;;;;;13.42;69.68;96700.06;4988579;28;20635;-51
2023/11/03 11:54:19;;;;;;;4.82;1.20;;;;;;;13.41;69.60;96702.75;4995160;28;20050;-54
2023/11/03 11:56:47;;;;;;;3.97;1.42;;;;;;;13.42;69.34;96707.88;4999979;28;20054;-47
2023/11/03 11:59:18;;;;;;;2.40;1.13;;;;;;;13.49;70.34;96705.69;4999333;28;20053;-54
2023/11/03 12:01:46;;;;;;;4.85;1.15;;;;;;;13.54;69.58;96708.00;4969775;28;20053;-51